Time;durP1;ratioP1;P1;durP2;ratioP2;P2;SDS_P1;SDS_P2;PMS_P1;PMS_P2;Temp;Humidity;BMP_temperature;BMP_pressure;BME280_temperature;BME280_humidity;BME280_pressure;Samples;Min_cycle;Max_cycle;Signal;HPM_P1;HPM_P2
2023/12/05 00:01:38;;;;;;;22.83;14.03;;;;;;;;;;4976586;28;20633;-83
2023/12/05 00:04:42;;;;;;;24.70;14.07;;;;;;;;;;4964421;28;20573;-82
2023/12/05 00:07:46;;;;;;;23.80;14.80;;;;;;;;;;4976096;28;20542;-83
2023/12/05 00:10:50;;;;;;;22.80;13.73;;;;;;;;;;4964308;28;20629;-83
2023/12/05 00:13:59;;;;;;;24.73;14.63;;;;;;;;;;4976529;28;20554;-84
2023/12/05 00:17:03;;;;;;;23.10;13.80;;;;;;;;;;4976123;28;20621;-84
2023/12/05 00:20:08;;;;;;;23.30;13.43;;;;;;;;;;4964153;28;20549;-83
2023/12/05 00:23:12;;;;;;;22.10;14.03;;;;;;;;;;4966071;28;20550;-83
2023/12/05 00:26:18;;;;;;;20.97;13.13;;;;;;;;;;4966158;28;21102;-83
2023/12/05 00:29:21;;;;;;;23.70;14.13;;;;;;;;;;4977669;28;20574;-83
2023/12/05 00:32:26;;;;;;;22.90;13.93;;;;;;;;;;4975266;28;20995;-83
2023/12/05 00:35:29;;;;;;;22.33;14.53;;;;;;;;;;4965232;28;20617;-83
2023/12/05 00:38:34;;;;;;;21.77;13.93;;;;;;;;;;4976747;28;20550;-83
2023/12/05 00:41:38;;;;;;;22.67;14.47;;;;;;;;;;4976722;28;21193;-83
2023/12/05 00:44:42;;;;;;;23.33;13.93;;;;;;;;;;4977586;28;20569;-82
2023/12/05 00:47:47;;;;;;;22.57;14.17;;;;;;;;;;4977091;28;20554;-82
2023/12/05 00:50:51;;;;;;;22.03;13.50;;;;;;;;;;4969787;28;20637;-82
2023/12/05 00:53:56;;;;;;;21.10;13.73;;;;;;;;;;4980895;28;20561;-83
2023/12/05 00:57:00;;;;;;;24.37;15.03;;;;;;;;;;4980876;28;20601;-83
2023/12/05 01:00:09;;;;;;;23.57;14.23;;;;;;;;;;4980153;28;20892;-84
2023/12/05 01:03:14;;;;;;;26.20;15.37;;;;;;;;;;4982218;28;20895;-84
2023/12/05 01:06:19;;;;;;;22.53;13.90;;;;;;;;;;4969846;28;21094;-83
2023/12/05 01:09:24;;;;;;;21.10;13.23;;;;;;;;;;4980265;28;20541;-83
2023/12/05 01:12:28;;;;;;;22.43;14.10;;;;;;;;;;4971174;28;20550;-85
2023/12/05 01:15:37;;;;;;;22.03;14.20;;;;;;;;;;4984996;28;20613;-85
2023/12/05 01:18:41;;;;;;;23.37;14.90;;;;;;;;;;4985299;28;20896;-84
2023/12/05 01:21:45;;;;;;;24.40;15.43;;;;;;;;;;4985440;28;20621;-85
2023/12/05 01:24:54;;;;;;;24.03;15.20;;;;;;;;;;4975043;28;20546;-85
2023/12/05 01:27:59;;;;;;;25.23;15.67;;;;;;;;;;4985775;28;20550;-85
2023/12/05 01:31:04;;;;;;;25.00;15.93;;;;;;;;;;4986179;28;20649;-85
2023/12/05 01:34:08;;;;;;;27.53;15.73;;;;;;;;;;4974854;28;20554;-85
2023/12/05 01:37:12;;;;;;;22.60;14.63;;;;;;;;;;4984807;28;20609;-83
2023/12/05 01:40:16;;;;;;;26.37;15.33;;;;;;;;;;4984071;28;20633;-83
2023/12/05 01:43:21;;;;;;;24.10;15.60;;;;;;;;;;4986075;28;20558;-85
2023/12/05 01:46:27;;;;;;;26.13;16.07;;;;;;;;;;4985552;28;20550;-85
2023/12/05 01:49:33;;;;;;;27.40;14.77;;;;;;;;;;4985122;28;20550;-85
2023/12/05 01:52:41;;;;;;;23.97;14.33;;;;;;;;;;4985702;28;20557;-85
2023/12/05 01:55:46;;;;;;;26.57;15.57;;;;;;;;;;4986381;28;20570;-85
2023/12/05 01:58:50;;;;;;;23.47;15.70;;;;;;;;;;4973164;28;20561;-83
2023/12/05 02:01:54;;;;;;;23.73;15.37;;;;;;;;;;4983329;28;20637;-83
2023/12/05 02:04:58;;;;;;;25.70;15.30;;;;;;;;;;4984407;28;20550;-83
2023/12/05 02:08:03;;;;;;;26.17;16.27;;;;;;;;;;4985933;28;20541;-83
2023/12/05 02:11:08;;;;;;;25.50;15.87;;;;;;;;;;4986791;28;20629;-83
2023/12/05 02:14:12;;;;;;;25.37;16.30;;;;;;;;;;4985956;28;20562;-83
2023/12/05 02:17:27;;;;;;;24.30;15.27;;;;;;;;;;4986230;28;20613;-85
2023/12/05 02:20:51;;;;;;;26.30;16.17;;;;;;;;;;4989619;28;20632;-85
2023/12/05 02:24:25;;;;;;;26.60;16.23;;;;;;;;;;4978987;28;20541;-85
2023/12/05 02:27:34;;;;;;;30.47;17.33;;;;;;;;;;4990508;28;20542;-85
2023/12/05 02:30:39;;;;;;;29.37;17.43;;;;;;;;;;4977816;28;20655;-85
2023/12/05 02:33:43;;;;;;;26.27;16.47;;;;;;;;;;4989799;28;20549;-85
2023/12/05 02:37:04;;;;;;;26.77;16.10;;;;;;;;;;4977238;28;20612;-85
2023/12/05 02:40:38;;;;;;;25.87;16.13;;;;;;;;;;4975230;28;20546;-83
2023/12/05 02:43:49;;;;;;;30.87;16.77;;;;;;;;;;4974768;28;20562;-83
2023/12/05 02:46:54;;;;;;;25.97;16.10;;;;;;;;;;4974304;28;20538;-83
2023/12/05 02:49:58;;;;;;;26.27;16.17;;;;;;;;;;4986596;28;20550;-83
2023/12/05 02:53:03;;;;;;;25.87;15.17;;;;;;;;;;4985690;28;20550;-84
2023/12/05 02:56:07;;;;;;;24.27;15.30;;;;;;;;;;4973906;28;20597;-83
2023/12/05 02:59:12;;;;;;;26.73;16.67;;;;;;;;;;4974572;28;20920;-85
2023/12/05 03:02:16;;;;;;;25.60;16.57;;;;;;;;;;4975499;28;20624;-83
2023/12/05 03:05:20;;;;;;;27.60;17.10;;;;;;;;;;4983690;28;20549;-83
2023/12/05 03:08:25;;;;;;;26.73;16.60;;;;;;;;;;4985045;28;20558;-83
2023/12/05 03:11:30;;;;;;;24.50;16.57;;;;;;;;;;4974725;28;21220;-83
2023/12/05 03:14:34;;;;;;;22.80;15.40;;;;;;;;;;4984428;28;20585;-83
2023/12/05 03:17:38;;;;;;;26.73;16.37;;;;;;;;;;4984949;28;20609;-83
2023/12/05 03:20:42;;;;;;;26.53;16.57;;;;;;;;;;4985066;28;20628;-84
2023/12/05 03:23:47;;;;;;;23.37;15.47;;;;;;;;;;4986442;28;20573;-84
2023/12/05 03:26:51;;;;;;;25.90;15.70;;;;;;;;;;4985301;28;20546;-85
2023/12/05 03:29:55;;;;;;;24.53;15.87;;;;;;;;;;4973653;28;20920;-83
2023/12/05 03:32:59;;;;;;;23.90;15.90;;;;;;;;;;4983633;28;20542;-83
2023/12/05 03:36:04;;;;;;;21.37;14.47;;;;;;;;;;4972536;28;20550;-84
2023/12/05 03:39:08;;;;;;;24.63;15.63;;;;;;;;;;4983991;28;20549;-83
2023/12/05 03:42:13;;;;;;;24.57;15.77;;;;;;;;;;4974060;28;20621;-85
2023/12/05 03:45:17;;;;;;;27.30;16.03;;;;;;;;;;4985989;28;21128;-84
2023/12/05 03:48:21;;;;;;;22.80;15.03;;;;;;;;;;4973739;28;20546;-85
2023/12/05 03:51:26;;;;;;;22.10;14.10;;;;;;;;;;4983424;28;20633;-83
2023/12/05 03:54:31;;;;;;;23.13;15.37;;;;;;;;;;4983941;28;20569;-84
2023/12/05 03:57:35;;;;;;;22.93;15.10;;;;;;;;;;4983235;28;21165;-83
2023/12/05 04:00:39;;;;;;;24.37;15.70;;;;;;;;;;4983709;28;20632;-84
2023/12/05 04:03:43;;;;;;;20.70;14.87;;;;;;;;;;4973074;28;20909;-84
2023/12/05 04:06:48;;;;;;;21.93;14.27;;;;;;;;;;4982526;28;20573;-84
2023/12/05 04:09:52;;;;;;;23.23;15.37;;;;;;;;;;4971075;28;20619;-83
2023/12/05 04:12:56;;;;;;;23.67;14.97;;;;;;;;;;4982693;28;20554;-84
2023/12/05 04:16:01;;;;;;;24.77;15.63;;;;;;;;;;4971177;28;20554;-83
2023/12/05 04:19:05;;;;;;;23.73;15.53;;;;;;;;;;4982178;28;20534;-84
2023/12/05 04:22:09;;;;;;;22.87;14.67;;;;;;;;;;4983437;28;20624;-85
2023/12/05 04:25:15;;;;;;;22.23;15.10;;;;;;;;;;4975624;28;20553;-85
2023/12/05 04:28:19;;;;;;;25.47;15.17;;;;;;;;;;4987754;28;20546;-84
2023/12/05 04:31:26;;;;;;;21.63;14.93;;;;;;;;;;4976233;28;20648;-84
2023/12/05 04:34:31;;;;;;;26.40;15.37;;;;;;;;;;4984866;28;20565;-83
2023/12/05 04:37:35;;;;;;;24.70;14.60;;;;;;;;;;4985068;28;20620;-83
2023/12/05 04:40:39;;;;;;;21.53;14.87;;;;;;;;;;4974032;28;20625;-83
2023/12/05 04:43:43;;;;;;;21.27;14.77;;;;;;;;;;4985738;28;20557;-85
2023/12/05 04:46:48;;;;;;;19.87;13.67;;;;;;;;;;4985797;28;20550;-84
2023/12/05 04:49:52;;;;;;;24.03;15.13;;;;;;;;;;4973202;28;20545;-83
2023/12/05 04:52:56;;;;;;;20.83;14.30;;;;;;;;;;4985752;28;20562;-84
2023/12/05 04:56:00;;;;;;;25.23;15.43;;;;;;;;;;4986203;28;20549;-83
2023/12/05 04:59:05;;;;;;;22.30;14.93;;;;;;;;;;4983580;28;20920;-83
2023/12/05 05:02:11;;;;;;;26.57;16.17;;;;;;;;;;4984624;28;20633;-83
2023/12/05 05:05:15;;;;;;;21.83;14.67;;;;;;;;;;4984377;28;20542;-83
2023/12/05 05:08:19;;;;;;;25.53;15.73;;;;;;;;;;4984803;28;20546;-84
2023/12/05 05:11:23;;;;;;;33.50;14.70;;;;;;;;;;4983087;28;20629;-83
2023/12/05 05:14:27;;;;;;;22.50;14.23;;;;;;;;;;4983747;28;20924;-85
2023/12/05 05:17:33;;;;;;;27.93;15.40;;;;;;;;;;4982823;28;20605;-84
2023/12/05 05:20:37;;;;;;;30.17;14.83;;;;;;;;;;4971035;28;20641;-83
2023/12/05 05:23:41;;;;;;;28.53;14.93;;;;;;;;;;4982771;28;20554;-83
2023/12/05 05:26:45;;;;;;;24.13;14.70;;;;;;;;;;4981918;28;20545;-85
2023/12/05 05:29:50;;;;;;;23.67;14.57;;;;;;;;;;4981908;28;20609;-83
2023/12/05 05:32:54;;;;;;;24.47;14.37;;;;;;;;;;4981840;28;20542;-83
2023/12/05 05:35:58;;;;;;;21.17;13.93;;;;;;;;;;4970648;28;20554;-84
2023/12/05 05:39:02;;;;;;;20.17;13.50;;;;;;;;;;4983414;28;20558;-83
2023/12/05 05:42:07;;;;;;;18.03;12.23;;;;;;;;;;4971186;28;20628;-85
2023/12/05 05:45:12;;;;;;;20.73;13.47;;;;;;;;;;4982467;28;20565;-83
2023/12/05 05:48:15;;;;;;;24.00;12.70;;;;;;;;;;4969840;28;20541;-83
2023/12/05 05:51:20;;;;;;;23.33;13.27;;;;;;;;;;4969932;28;20975;-84
2023/12/05 05:54:24;;;;;;;23.13;13.80;;;;;;;;;;4980788;28;20928;-83
2023/12/05 05:57:28;;;;;;;27.70;15.10;;;;;;;;;;4982433;28;20597;-84
2023/12/05 06:00:33;;;;;;;23.30;12.47;;;;;;;;;;4984267;28;20637;-83
2023/12/05 06:03:37;;;;;;;30.73;14.13;;;;;;;;;;4983654;28;20550;-84
2023/12/05 06:06:41;;;;;;;29.53;14.70;;;;;;;;;;4980168;28;20573;-84
2023/12/05 06:09:45;;;;;;;18.13;11.83;;;;;;;;;;4981214;28;20611;-83
2023/12/05 06:12:50;;;;;;;23.13;12.50;;;;;;;;;;4981693;28;20550;-84
2023/12/05 06:15:54;;;;;;;17.63;12.77;;;;;;;;;;4980471;28;20550;-84
2023/12/05 06:18:58;;;;;;;19.83;11.80;;;;;;;;;;4980237;28;20597;-83
2023/12/05 06:22:03;;;;;;;17.90;11.17;;;;;;;;;;4982476;28;20625;-83
2023/12/05 06:25:07;;;;;;;21.00;11.40;;;;;;;;;;4983468;28;20927;-84
2023/12/05 06:28:12;;;;;;;18.73;12.43;;;;;;;;;;4984038;28;20570;-84
2023/12/05 06:31:15;;;;;;;20.73;13.00;;;;;;;;;;4982109;28;20671;-84
2023/12/05 06:34:20;;;;;;;21.90;13.87;;;;;;;;;;4970455;28;20562;-83
2023/12/05 06:37:24;;;;;;;20.70;13.27;;;;;;;;;;4982902;28;20613;-84
2023/12/05 06:40:28;;;;;;;23.17;13.37;;;;;;;;;;4982942;28;20642;-85
2023/12/05 06:43:33;;;;;;;22.87;14.37;;;;;;;;;;4982290;28;20677;-85
2023/12/05 06:46:37;;;;;;;34.63;17.73;;;;;;;;;;4970470;28;20557;-85
2023/12/05 06:49:42;;;;;;;33.57;16.77;;;;;;;;;;4980856;28;20569;-84
2023/12/05 06:52:46;;;;;;;28.03;16.30;;;;;;;;;;4980378;28;20562;-83
2023/12/05 06:55:51;;;;;;;29.73;17.57;;;;;;;;;;4980201;28;20561;-85
2023/12/05 06:58:55;;;;;;;26.77;16.63;;;;;;;;;;4980519;28;20613;-84
2023/12/05 07:01:59;;;;;;;27.50;15.80;;;;;;;;;;4967519;28;20625;-83
2023/12/05 07:05:04;;;;;;;28.70;17.37;;;;;;;;;;4981174;28;20546;-83
2023/12/05 07:08:09;;;;;;;28.87;16.00;;;;;;;;;;4980903;28;20558;-84
2023/12/05 07:11:13;;;;;;;27.43;16.73;;;;;;;;;;4967830;28;20632;-83
2023/12/05 07:14:17;;;;;;;26.93;15.30;;;;;;;;;;4982319;28;20554;-83
2023/12/05 07:17:21;;;;;;;20.63;13.73;;;;;;;;;;4967736;28;20912;-83
2023/12/05 07:20:25;;;;;;;18.20;13.33;;;;;;;;;;4982427;28;20633;-83
2023/12/05 07:23:30;;;;;;;17.03;12.40;;;;;;;;;;4982639;28;21110;-84
2023/12/05 07:26:35;;;;;;;21.63;12.93;;;;;;;;;;4983302;28;20546;-85
2023/12/05 07:29:39;;;;;;;19.93;13.40;;;;;;;;;;4982817;28;20920;-83
2023/12/05 07:32:43;;;;;;;16.27;11.90;;;;;;;;;;4982440;28;20550;-83
2023/12/05 07:35:47;;;;;;;18.30;12.57;;;;;;;;;;4981711;28;20553;-84
2023/12/05 07:38:51;;;;;;;20.57;12.30;;;;;;;;;;4971341;28;20698;-85
2023/12/05 07:41:55;;;;;;;18.60;12.53;;;;;;;;;;4971353;28;20629;-84
2023/12/05 07:45:01;;;;;;;18.43;11.37;;;;;;;;;;4982230;28;20574;-83
2023/12/05 07:48:05;;;;;;;16.90;11.70;;;;;;;;;;4981886;28;20541;-83
2023/12/05 07:51:15;;;;;;;16.50;11.63;;;;;;;;;;4980646;28;20628;-83
2023/12/05 07:54:20;;;;;;;23.23;11.10;;;;;;;;;;4980961;28;20546;-83
2023/12/05 07:57:25;;;;;;;16.53;10.13;;;;;;;;;;4980563;28;20545;-84
2023/12/05 08:00:29;;;;;;;21.43;12.27;;;;;;;;;;4968920;28;20641;-83
2023/12/05 08:03:34;;;;;;;18.40;10.87;;;;;;;;;;4980453;28;20562;-83
2023/12/05 08:06:39;;;;;;;14.70;9.63;;;;;;;;;;4980505;28;20554;-84
2023/12/05 08:09:43;;;;;;;16.87;9.80;;;;;;;;;;4968783;28;20546;-84
2023/12/05 08:12:49;;;;;;;14.40;10.00;;;;;;;;;;4968055;28;20546;-83
2023/12/05 08:15:54;;;;;;;17.60;9.90;;;;;;;;;;4980331;28;20553;-84
2023/12/05 08:18:58;;;;;;;15.80;8.63;;;;;;;;;;4979726;28;20614;-85
2023/12/05 08:22:02;;;;;;;13.87;8.43;;;;;;;;;;4968992;28;20218;-85
2023/12/05 08:25:08;;;;;;;10.90;7.80;;;;;;;;;;4957847;28;20567;-85
2023/12/05 08:28:13;;;;;;;11.93;8.40;;;;;;;;;;4969295;28;21071;-84
2023/12/05 08:31:17;;;;;;;13.10;7.60;;;;;;;;;;4968746;28;20230;-83
2023/12/05 08:34:21;;;;;;;10.83;7.53;;;;;;;;;;4970282;28;20187;-84
2023/12/05 08:37:26;;;;;;;11.10;7.30;;;;;;;;;;4969222;28;20186;-83
2023/12/05 08:40:30;;;;;;;11.40;7.30;;;;;;;;;;4981469;28;20219;-84
2023/12/05 08:43:36;;;;;;;14.53;8.63;;;;;;;;;;4979705;28;20179;-85
2023/12/05 08:46:40;;;;;;;10.93;8.07;;;;;;;;;;4967820;28;20179;-83
2023/12/05 08:49:44;;;;;;;10.57;7.33;;;;;;;;;;4978722;28;20179;-85
2023/12/05 08:52:48;;;;;;;11.50;6.83;;;;;;;;;;4978340;28;20191;-86
2023/12/05 08:55:52;;;;;;;14.43;7.50;;;;;;;;;;4978126;28;20191;-85
2023/12/05 08:58:58;;;;;;;9.57;7.13;;;;;;;;;;4966515;28;20219;-84
2023/12/05 09:02:02;;;;;;;13.37;6.97;;;;;;;;;;4954885;28;20314;-83
2023/12/05 09:05:07;;;;;;;15.83;7.97;;;;;;;;;;4977400;28;20190;-84
2023/12/05 09:08:11;;;;;;;10.33;6.70;;;;;;;;;;4965988;28;20522;-84
2023/12/05 09:11:15;;;;;;;13.43;7.80;;;;;;;;;;4979005;28;20214;-85
2023/12/05 09:14:19;;;;;;;10.63;6.87;;;;;;;;;;4979586;28;20190;-83
2023/12/05 09:17:23;;;;;;;9.37;6.87;;;;;;;;;;4981039;28;20183;-84
2023/12/05 09:20:27;;;;;;;10.23;6.97;;;;;;;;;;4980749;28;20700;-84
2023/12/05 09:23:32;;;;;;;9.20;5.90;;;;;;;;;;4980005;28;20183;-85
2023/12/05 09:26:36;;;;;;;7.90;5.77;;;;;;;;;;4980070;28;20190;-83
2023/12/05 09:29:40;;;;;;;18.20;11.83;;;;;;;;;;4979579;28;20179;-83
2023/12/05 09:32:45;;;;;;;19.67;12.83;;;;;;;;;;4980015;28;20555;-82
2023/12/05 09:35:48;;;;;;;21.30;13.33;;;;;;;;;;4980456;28;20202;-83
2023/12/05 09:38:52;;;;;;;15.77;11.23;;;;;;;;;;4981483;28;20219;-83
2023/12/05 09:42:03;;;;;;;16.43;10.90;;;;;;;;;;4980806;28;20218;-83
2023/12/05 09:45:13;;;;;;;12.27;7.77;;;;;;;;;;4982051;28;20191;-83
2023/12/05 09:48:20;;;;;;;7.00;4.37;;;;;;;;;;4981287;28;20179;-83
2023/12/05 09:51:24;;;;;;;5.30;4.47;;;;;;;;;;4979943;28;20215;-84
2023/12/05 09:54:29;;;;;;;5.63;4.23;;;;;;;;;;4958121;28;20187;-84
2023/12/05 09:57:37;;;;;;;10.17;4.60;;;;;;;;;;4980509;28;20183;-83
2023/12/05 10:00:45;;;;;;;7.23;4.70;;;;;;;;;;4968942;28;20219;-83
2023/12/05 10:03:55;;;;;;;11.97;6.20;;;;;;;;;;4980466;28;20537;-83
2023/12/05 10:06:59;;;;;;;13.03;7.33;;;;;;;;;;4982570;28;20183;-84
2023/12/05 10:10:05;;;;;;;15.07;8.10;;;;;;;;;;4982511;28;20183;-83
2023/12/05 10:13:11;;;;;;;16.23;8.77;;;;;;;;;;4980082;28;20187;-83
2023/12/05 10:16:17;;;;;;;14.27;8.63;;;;;;;;;;4980274;28;20526;-84
2023/12/05 10:19:21;;;;;;;14.27;8.03;;;;;;;;;;4979866;28;20207;-83
2023/12/05 10:22:26;;;;;;;12.50;7.10;;;;;;;;;;4979769;28;20183;-84
2023/12/05 10:25:30;;;;;;;12.90;7.13;;;;;;;;;;4979214;28;20183;-82
2023/12/05 10:28:56;;;;;;;9.33;6.50;;;;;;;;;;4967248;28;20183;-83
2023/12/05 10:32:00;;;;;;;9.53;6.43;;;;;;;;;;4966866;28;20230;-84
2023/12/05 10:35:04;;;;;;;10.50;7.67;;;;;;;;;;4978372;28;20183;-82
2023/12/05 10:38:10;;;;;;;14.50;9.13;;;;;;;;;;4978803;28;20183;-82
2023/12/05 10:41:24;;;;;;;11.37;7.87;;;;;;;;;;4966753;28;20227;-82
2023/12/05 10:44:38;;;;;;;13.10;8.27;;;;;;;;;;4978480;28;20179;-82
2023/12/05 10:47:42;;;;;;;10.13;7.47;;;;;;;;;;4979527;28;20175;-82
2023/12/05 10:50:48;;;;;;;15.03;9.03;;;;;;;;;;4978152;28;20218;-82
2023/12/05 10:53:53;;;;;;;16.07;9.60;;;;;;;;;;4979582;28;20187;-81
2023/12/05 10:56:58;;;;;;;13.67;9.63;;;;;;;;;;4966945;28;20183;-83
2023/12/05 11:00:05;;;;;;;15.37;9.87;;;;;;;;;;4966509;28;20215;-81
2023/12/05 11:03:12;;;;;;;20.17;10.00;;;;;;;;;;4978516;28;20183;-83
2023/12/05 11:06:18;;;;;;;15.70;10.07;;;;;;;;;;4978881;28;20840;-80
2023/12/05 11:09:22;;;;;;;16.53;9.57;;;;;;;;;;4978226;28;20179;-82
2023/12/05 11:12:28;;;;;;;15.27;10.33;;;;;;;;;;4978980;28;20191;-81
2023/12/05 11:15:38;;;;;;;12.10;9.00;;;;;;;;;;4979073;28;20192;-84
2023/12/05 11:18:44;;;;;;;13.53;7.83;;;;;;;;;;4979020;28;20214;-82
2023/12/05 11:22:09;;;;;;;9.77;7.60;;;;;;;;;;4977522;28;20699;-82
2023/12/05 11:25:28;;;;;;;11.33;6.80;;;;;;;;;;4967240;28;20184;-82
2023/12/05 11:28:55;;;;;;;8.40;6.47;;;;;;;;;;4978535;28;20183;-82
2023/12/05 11:32:20;;;;;;;8.77;6.87;;;;;;;;;;4979536;28;20226;-82
2023/12/05 11:35:36;;;;;;;11.17;6.80;;;;;;;;;;4978670;28;20179;-82
2023/12/05 11:38:41;;;;;;;8.40;6.33;;;;;;;;;;4978218;28;20636;-82
2023/12/05 11:42:14;;;;;;;8.13;6.03;;;;;;;;;;4966517;28;20222;-83
2023/12/05 11:45:22;;;;;;;9.67;6.40;;;;;;;;;;4966557;28;20171;-82
2023/12/05 11:48:27;;;;;;;9.70;6.13;;;;;;;;;;4978061;28;20183;-82
2023/12/05 11:51:36;;;;;;;9.60;6.23;;;;;;;;;;4978513;28;20219;-83
2023/12/05 11:54:43;;;;;;;9.90;6.60;;;;;;;;;;4978519;28;20183;-82
2023/12/05 11:57:48;;;;;;;10.77;7.30;;;;;;;;;;4977414;28;20191;-82
2023/12/05 12:01:00;;;;;;;13.07;7.67;;;;;;;;;;4965499;28;20234;-83
2023/12/05 12:04:17;;;;;;;13.77;7.83;;;;;;;;;;4977549;28;20183;-83
2023/12/05 12:07:22;;;;;;;11.37;7.83;;;;;;;;;;4978216;28;20187;-83
2023/12/05 12:10:26;;;;;;;10.63;7.70;;;;;;;;;;4976739;28;20214;-81
2023/12/05 12:13:30;;;;;;;12.60;8.87;;;;;;;;;;4965491;28;20526;-83
2023/12/05 12:16:38;;;;;;;12.33;8.07;;;;;;;;;;4976790;28;20187;-82
2023/12/05 12:19:43;;;;;;;10.30;7.57;;;;;;;;;;4976378;28;20210;-82
2023/12/05 12:22:51;;;;;;;13.33;8.13;;;;;;;;;;4977178;28;20191;-82
2023/12/05 12:26:00;;;;;;;10.17;7.10;;;;;;;;;;4966225;28;20183;-82
2023/12/05 12:29:06;;;;;;;9.43;6.67;;;;;;;;;;4955959;28;20521;-83
2023/12/05 12:32:10;;;;;;;12.23;7.37;;;;;;;;;;4977740;28;20222;-82
2023/12/05 12:35:15;;;;;;;12.43;8.33;;;;;;;;;;4966375;28;20183;-82
2023/12/05 12:38:19;;;;;;;14.53;9.47;;;;;;;;;;4977723;28;20183;-82
2023/12/05 12:41:26;;;;;;;12.33;8.80;;;;;;;;;;4977765;28;20211;-81
2023/12/05 12:44:30;;;;;;;19.97;11.07;;;;;;;;;;4977092;28;20183;-83
2023/12/05 12:47:34;;;;;;;14.43;10.07;;;;;;;;;;4982456;28;20189;-82
2023/12/05 12:50:39;;;;;;;17.20;10.63;;;;;;;;;;4981163;28;20583;-84
2023/12/05 12:53:43;;;;;;;13.47;9.90;;;;;;;;;;4982507;28;20194;-83
2023/12/05 12:56:47;;;;;;;14.13;10.03;;;;;;;;;;4980375;28;20182;-83
2023/12/05 12:59:56;;;;;;;14.53;10.20;;;;;;;;;;4969888;28;20221;-83
2023/12/05 13:03:00;;;;;;;21.87;10.20;;;;;;;;;;4981842;28;20179;-83
2023/12/05 13:06:05;;;;;;;12.67;9.00;;;;;;;;;;4980699;28;20189;-85
2023/12/05 13:09:23;;;;;;;13.83;9.30;;;;;;;;;;4980811;28;20187;-84
2023/12/05 13:12:27;;;;;;;15.17;10.03;;;;;;;;;;4980256;28;20180;-83
2023/12/05 13:15:31;;;;;;;19.37;10.93;;;;;;;;;;4980716;28;20184;-84
2023/12/05 13:18:41;;;;;;;16.93;10.43;;;;;;;;;;4981196;28;20557;-84
2023/12/05 13:21:45;;;;;;;15.00;10.57;;;;;;;;;;4980485;28;20726;-84
2023/12/05 13:24:49;;;;;;;22.63;10.73;;;;;;;;;;4980288;28;20182;-83
2023/12/05 13:27:53;;;;;;;15.90;10.47;;;;;;;;;;4969507;28;20579;-84
2023/12/05 13:30:57;;;;;;;13.73;9.67;;;;;;;;;;4980696;28;20233;-84
2023/12/05 13:34:02;;;;;;;13.67;9.73;;;;;;;;;;4968800;28;20187;-83
2023/12/05 13:37:07;;;;;;;17.27;10.53;;;;;;;;;;4968984;28;20183;-83
2023/12/05 13:40:11;;;;;;;15.43;10.27;;;;;;;;;;4980584;28;20214;-83
2023/12/05 13:43:17;;;;;;;12.77;10.10;;;;;;;;;;4980196;28;20540;-82
2023/12/05 13:46:22;;;;;;;15.37;10.27;;;;;;;;;;4979826;28;20629;-83
2023/12/05 13:49:26;;;;;;;17.13;10.77;;;;;;;;;;4969013;28;20188;-83
2023/12/05 13:52:30;;;;;;;19.13;10.87;;;;;;;;;;4960857;28;20207;-84
2023/12/05 13:55:34;;;;;;;15.27;11.13;;;;;;;;;;4980624;28;20560;-83
2023/12/05 13:58:38;;;;;;;13.87;10.57;;;;;;;;;;4980403;28;20183;-82
2023/12/05 14:01:42;;;;;;;18.53;11.57;;;;;;;;;;4970392;28;20222;-82
2023/12/05 14:04:46;;;;;;;18.17;11.37;;;;;;;;;;4980821;28;20190;-83
2023/12/05 14:07:50;;;;;;;14.60;10.97;;;;;;;;;;4981212;28;20183;-83
2023/12/05 14:10:54;;;;;;;23.53;11.70;;;;;;;;;;4980844;28;20210;-83
2023/12/05 14:13:59;;;;;;;15.10;11.40;;;;;;;;;;4980229;28;20187;-83
2023/12/05 14:17:03;;;;;;;17.13;11.97;;;;;;;;;;4979772;28;20566;-82
2023/12/05 14:20:10;;;;;;;16.77;11.33;;;;;;;;;;4979941;28;20218;-83
2023/12/05 14:23:14;;;;;;;18.13;11.50;;;;;;;;;;4980832;28;20191;-83
2023/12/05 14:26:18;;;;;;;18.53;10.87;;;;;;;;;;4979544;28;20194;-82
2023/12/05 14:29:22;;;;;;;12.77;9.47;;;;;;;;;;4980430;28;20183;-84
2023/12/05 14:32:26;;;;;;;15.43;9.27;;;;;;;;;;4978647;28;20215;-82
2023/12/05 14:35:31;;;;;;;13.50;9.03;;;;;;;;;;4978715;28;20640;-82
2023/12/05 14:38:35;;;;;;;14.77;9.80;;;;;;;;;;4978879;28;20183;-83
2023/12/05 14:41:39;;;;;;;12.00;9.37;;;;;;;;;;4979667;28;20226;-82
2023/12/05 14:44:43;;;;;;;13.00;9.47;;;;;;;;;;4979371;28;20187;-82
2023/12/05 14:47:47;;;;;;;13.80;9.57;;;;;;;;;;4967457;28;20187;-82
2023/12/05 14:50:51;;;;;;;15.50;10.30;;;;;;;;;;4967258;28;20218;-82
2023/12/05 14:53:56;;;;;;;16.93;10.60;;;;;;;;;;4979175;28;20195;-82
2023/12/05 14:57:00;;;;;;;14.20;10.27;;;;;;;;;;4978694;28;20570;-82
2023/12/05 15:00:07;;;;;;;17.17;11.40;;;;;;;;;;4978498;28;20213;-82
2023/12/05 15:03:11;;;;;;;17.40;11.23;;;;;;;;;;4978542;28;20545;-82
2023/12/05 15:06:15;;;;;;;19.70;11.37;;;;;;;;;;4978120;28;20564;-81
2023/12/05 15:09:19;;;;;;;18.30;11.17;;;;;;;;;;4966463;28;20187;-82
2023/12/05 15:12:24;;;;;;;15.27;11.03;;;;;;;;;;4978843;28;20565;-81
2023/12/05 15:15:28;;;;;;;19.23;10.97;;;;;;;;;;4967006;28;20566;-81
2023/12/05 15:18:33;;;;;;;21.87;12.23;;;;;;;;;;4966913;28;20550;-82
2023/12/05 15:21:37;;;;;;;22.33;12.97;;;;;;;;;;4977803;28;20661;-81
2023/12/05 15:24:41;;;;;;;19.67;12.90;;;;;;;;;;4978212;28;20562;-81
2023/12/05 15:27:45;;;;;;;18.47;12.60;;;;;;;;;;4977518;28;20569;-82
2023/12/05 15:30:49;;;;;;;19.33;12.30;;;;;;;;;;4977144;28;20648;-81
2023/12/05 15:33:54;;;;;;;17.97;12.43;;;;;;;;;;4978096;28;20562;-81
2023/12/05 15:36:59;;;;;;;16.67;12.20;;;;;;;;;;4976827;28;21128;-81
2023/12/05 15:40:06;;;;;;;19.03;13.03;;;;;;;;;;4977759;28;21190;-82
2023/12/05 15:43:10;;;;;;;18.90;12.20;;;;;;;;;;4966102;28;20956;-81
2023/12/05 15:46:22;;;;;;;20.40;12.07;;;;;;;;;;4977089;28;21126;-81
2023/12/05 15:49:26;;;;;;;19.07;12.67;;;;;;;;;;4977826;28;20916;-81
2023/12/05 15:52:30;;;;;;;16.73;11.37;;;;;;;;;;4977322;28;20566;-82
2023/12/05 15:55:36;;;;;;;20.47;11.87;;;;;;;;;;4978714;28;20565;-80
2023/12/05 15:58:41;;;;;;;17.73;11.80;;;;;;;;;;4978036;28;20562;-82
2023/12/05 16:01:45;;;;;;;13.97;10.33;;;;;;;;;;4978028;28;20654;-82
2023/12/05 16:04:50;;;;;;;16.40;11.40;;;;;;;;;;4966370;28;20571;-82
2023/12/05 16:07:55;;;;;;;19.03;11.47;;;;;;;;;;4977314;28;20562;-82
2023/12/05 16:10:59;;;;;;;21.27;11.43;;;;;;;;;;4977533;28;20633;-81
2023/12/05 16:14:04;;;;;;;16.83;10.43;;;;;;;;;;4978609;28;21123;-81
2023/12/05 16:17:08;;;;;;;15.37;10.67;;;;;;;;;;4966047;28;20580;-81
2023/12/05 16:20:12;;;;;;;14.63;10.00;;;;;;;;;;4979890;28;20989;-81
2023/12/05 16:23:16;;;;;;;13.17;9.53;;;;;;;;;;4983468;28;20567;-83
2023/12/05 16:26:20;;;;;;;10.60;7.57;;;;;;;;;;4984184;28;20558;-82
2023/12/05 16:29:25;;;;;;;10.83;7.57;;;;;;;;;;4972557;28;20554;-81
2023/12/05 16:32:29;;;;;;;9.23;6.80;;;;;;;;;;4982896;28;20609;-81
2023/12/05 16:35:33;;;;;;;7.70;6.10;;;;;;;;;;4984285;28;20881;-81
2023/12/05 16:38:37;;;;;;;6.67;5.37;;;;;;;;;;4972118;28;20554;-81
2023/12/05 16:41:41;;;;;;;15.37;7.20;;;;;;;;;;4983742;28;21226;-81
2023/12/05 16:44:46;;;;;;;15.40;8.10;;;;;;;;;;4972246;28;20558;-81
2023/12/05 16:47:55;;;;;;;14.13;8.60;;;;;;;;;;4984083;28;20555;-81
2023/12/05 16:51:00;;;;;;;22.77;13.13;;;;;;;;;;4983598;28;20626;-83
2023/12/05 16:54:04;;;;;;;21.43;13.47;;;;;;;;;;4983132;28;20584;-83
2023/12/05 16:57:08;;;;;;;18.07;11.20;;;;;;;;;;4984285;28;20562;-81
2023/12/05 17:00:13;;;;;;;10.23;7.00;;;;;;;;;;4984035;28;20569;-82
2023/12/05 17:03:17;;;;;;;8.73;5.37;;;;;;;;;;4983876;28;21111;-81
2023/12/05 17:06:23;;;;;;;7.77;4.50;;;;;;;;;;4972588;28;20562;-82
2023/12/05 17:09:27;;;;;;;9.40;4.60;;;;;;;;;;4984511;28;21098;-81
2023/12/05 17:12:31;;;;;;;6.77;4.47;;;;;;;;;;4983076;28;20554;-81
2023/12/05 17:15:35;;;;;;;7.60;5.23;;;;;;;;;;4984247;28;20550;-81
2023/12/05 17:18:39;;;;;;;12.17;5.87;;;;;;;;;;4961484;28;20873;-81
2023/12/05 17:21:45;;;;;;;14.80;8.67;;;;;;;;;;4983858;28;20653;-81
2023/12/05 17:24:49;;;;;;;17.23;11.20;;;;;;;;;;4960769;28;20562;-83
2023/12/05 17:27:54;;;;;;;19.67;12.07;;;;;;;;;;4972468;28;20567;-81
2023/12/05 17:30:58;;;;;;;15.63;11.93;;;;;;;;;;4982856;28;20645;-82
2023/12/05 17:34:02;;;;;;;17.23;11.57;;;;;;;;;;4981050;28;20633;-81
2023/12/05 17:37:06;;;;;;;17.97;10.67;;;;;;;;;;4980788;28;20560;-81
2023/12/05 17:40:11;;;;;;;14.23;9.53;;;;;;;;;;4981331;28;21134;-81
2023/12/05 17:43:15;;;;;;;13.47;8.60;;;;;;;;;;4981348;28;20547;-82
2023/12/05 17:46:19;;;;;;;9.47;7.27;;;;;;;;;;4981394;28;20550;-81
2023/12/05 17:49:23;;;;;;;10.77;7.37;;;;;;;;;;4981397;28;20555;-81
2023/12/05 17:52:27;;;;;;;8.40;6.07;;;;;;;;;;4980030;28;20551;-81
2023/12/05 17:55:31;;;;;;;5.93;4.47;;;;;;;;;;4980383;28;20562;-82
2023/12/05 17:58:35;;;;;;;6.10;3.70;;;;;;;;;;4980244;28;20562;-82
2023/12/05 18:01:40;;;;;;;6.13;4.10;;;;;;;;;;4980417;28;20662;-82
2023/12/05 18:04:44;;;;;;;7.07;4.77;;;;;;;;;;4980447;28;20543;-83
2023/12/05 18:07:49;;;;;;;7.77;3.93;;;;;;;;;;4979657;28;20570;-81